Portada
METAR-TAF:

METAR-TAF

Aeroports :

Weno, Micronèsia

latitud: 07-28N, longitud: 151-51E, altitud: 3 m

Observació

L'informe es va fer fa 16 minuts, a les 07:52 UTC
Vent 4 kt amb direcció variable
Temperatura 27°C
Humitat 94%
Pressió 1009 hPa
Visibilitat: 22.5 km
Escasses núvols a una alçada de 1400 ft
Cel ennuvolat a una alçada de 12000 ft
Cel cobert a una alçada de 28000 ft

METAR: PTKK 240752Z VRB04KT 14SM FEW014 BKN120 OVC280 27/26 A2980 RMK SLP093 T02670256

Hora: 18:08 (08:08 UTC)

Pronòstic

L'informe es va fer fa 2 hores i 35 minuts, a les 05:33 UTC
Pronòstic vàlid del 24 a les 06 UTC al 25 a les 06 UTC
Vent 12 kt del Sud/Sud-Oest
Visibilitat: 10 km
Escasses núvols a una alçada de 1200 ft
Cel ennuvolat a una alçada de 11000 ft
Cel cobert a una alçada de 28000 ft
xàfecs en les proximitats

TAF: PTKK 240533Z 2406/2506 20012KT P6SM VCSH FEW012 BKN110 OVC280

Observacions i pronòstics meteorològics de més de 4000 aeroports (METAR i TAF).

Les estacions disponibles són els punts grocs i vermells al mapa.

Posi el ratolí al punt desitjat per veure el nom de l'estació.

Feu clic per veure les observacions i els pronòstics meteorològics.

Per canviar el mapa: feu clic els botons verds amb una creu de color negre per apropar; al botó verd amb un guió per allunyar la imatge; o en les fletxes verdes per a mapes adjacents.


METAR-TAF: